createdAt,value
2018-09-07T00:00:57.006Z,0
2018-09-07T00:01:57.074Z,0
2018-09-07T00:02:57.042Z,0
2018-09-07T00:03:57.072Z,0
2018-09-07T00:04:57.011Z,0
2018-09-07T00:05:57.076Z,0
2018-09-07T00:06:57.077Z,0
2018-09-07T00:07:57.010Z,0
2018-09-07T00:08:57.078Z,0
2018-09-07T00:09:57.016Z,0
2018-09-07T00:10:57.077Z,0
2018-09-07T00:11:57.011Z,0
2018-09-07T00:12:57.078Z,0
2018-09-07T00:13:57.012Z,0
2018-09-07T00:14:57.020Z,0
2018-09-07T00:15:57.082Z,0
2018-09-07T00:16:57.083Z,0
2018-09-07T00:17:57.020Z,0
2018-09-07T00:18:57.088Z,0
2018-09-07T00:19:57.085Z,0
2018-09-07T00:20:56.975Z,0
2018-09-07T00:21:57.106Z,0
2018-09-07T00:22:57.091Z,0
2018-09-07T00:23:57.027Z,0
2018-09-07T00:24:57.038Z,0
2018-09-07T00:25:57.087Z,0
2018-09-07T00:26:57.091Z,0
2018-09-07T00:27:57.087Z,0
2018-09-07T00:28:57.021Z,0
2018-09-07T00:29:57.027Z,0
2018-09-07T00:30:56.976Z,0
2018-09-07T00:31:57.093Z,0
2018-09-07T00:32:57.029Z,0
2018-09-07T00:33:57.045Z,0
2018-09-07T00:34:57.030Z,0
2018-09-07T00:35:57.096Z,0
2018-09-07T00:36:57.096Z,0
2018-09-07T00:37:57.030Z,0
2018-09-07T00:38:57.030Z,0
2018-09-07T00:39:57.036Z,0
2018-09-07T00:40:57.097Z,0
2018-09-07T00:41:57.096Z,0
2018-09-07T00:42:57.070Z,0
2018-09-07T00:43:57.102Z,0
2018-09-07T00:44:57.122Z,0
2018-09-07T00:45:57.037Z,0
2018-09-07T00:46:57.105Z,0
2018-09-07T00:47:57.051Z,0
2018-09-07T00:48:57.171Z,0
2018-09-07T00:49:57.068Z,0
2018-09-07T00:50:57.065Z,0
2018-09-07T00:51:56.995Z,0
2018-09-07T00:52:56.999Z,0
2018-09-07T00:53:57.038Z,0
2018-09-07T00:54:57.094Z,0
2018-09-07T00:55:57.040Z,0
2018-09-07T00:56:56.979Z,0
2018-09-07T00:57:57.010Z,0
2018-09-07T00:58:56.980Z,0
2018-09-07T00:59:57.045Z,0
2018-09-07T01:00:57.047Z,0
2018-09-07T01:01:57.112Z,0
2018-09-07T01:02:57.044Z,0
2018-09-07T01:03:57.115Z,0
2018-09-07T01:04:57.048Z,0
2018-09-07T01:05:57.117Z,0
2018-09-07T01:06:57.052Z,0
2018-09-07T01:07:57.118Z,0
2018-09-07T01:08:56.997Z,0
2018-09-07T01:09:57.083Z,0
2018-09-07T01:10:57.120Z,0
2018-09-07T01:11:57.058Z,0
2018-09-07T01:12:57.126Z,0
2018-09-07T01:13:57.060Z,0
2018-09-07T01:14:57.124Z,0
2018-09-07T01:15:57.144Z,0
2018-09-07T01:16:57.058Z,0
2018-09-07T01:17:57.060Z,0
2018-09-07T01:18:57.128Z,0
2018-09-07T01:19:57.031Z,0
2018-09-07T01:20:57.033Z,0
2018-09-07T01:21:57.032Z,0
2018-09-07T01:22:57.036Z,0
2018-09-07T01:23:57.049Z,0
2018-09-07T01:24:57.037Z,0
2018-09-07T01:25:57.034Z,0
2018-09-07T01:26:57.036Z,0
2018-09-07T01:27:57.039Z,0
2018-09-07T01:28:57.130Z,0
2018-09-07T01:29:57.060Z,0
2018-09-07T01:30:57.071Z,0
2018-09-07T01:31:57.136Z,0
2018-09-07T01:32:57.145Z,0
2018-09-07T01:33:57.068Z,0
2018-09-07T01:34:57.073Z,0
2018-09-07T01:35:57.062Z,0
2018-09-07T01:36:57.140Z,0
2018-09-07T01:37:57.100Z,0
2018-09-07T01:38:57.150Z,0
2018-09-07T01:39:57.073Z,0
2018-09-07T01:40:57.076Z,0
2018-09-07T01:41:57.095Z,0
2018-09-07T01:42:57.078Z,0
2018-09-07T01:43:57.146Z,0
2018-09-07T01:44:57.144Z,0
2018-09-07T01:45:57.082Z,0
2018-09-07T01:46:57.150Z,0
2018-09-07T01:47:57.160Z,0
2018-09-07T01:48:57.081Z,0
2018-09-07T01:49:57.149Z,0
2018-09-07T01:50:57.220Z,0
2018-09-07T01:51:57.151Z,0
2018-09-07T01:52:57.082Z,0
2018-09-07T01:53:57.156Z,0
2018-09-07T01:54:57.158Z,0
2018-09-07T01:55:57.161Z,0
2018-09-07T01:56:57.156Z,0
2018-09-07T01:57:57.204Z,0
2018-09-07T01:58:57.155Z,0
2018-09-07T01:59:57.085Z,0
2018-09-07T02:00:57.094Z,0
2018-09-07T02:01:57.089Z,0
2018-09-07T02:02:57.168Z,0
2018-09-07T02:03:57.157Z,0
2018-09-07T02:04:57.160Z,0
2018-09-07T02:05:57.165Z,0
2018-09-07T02:06:57.096Z,0
2018-09-07T02:07:57.095Z,0
2018-09-07T02:08:57.186Z,0
2018-09-07T02:09:57.173Z,0
2018-09-07T02:10:57.159Z,0
2018-09-07T02:11:57.066Z,0
2018-09-07T02:12:57.073Z,0
2018-09-07T02:13:57.163Z,0
2018-09-07T02:14:57.073Z,0
2018-09-07T02:15:57.073Z,0
2018-09-07T02:16:57.069Z,0
2018-09-07T02:17:57.075Z,0
2018-09-07T02:18:57.087Z,0
2018-09-07T02:19:57.075Z,0
2018-09-07T02:20:57.039Z,0
2018-09-07T02:21:57.161Z,0
2018-09-07T02:22:57.035Z,0
2018-09-07T02:23:57.102Z,0
2018-09-07T02:24:57.130Z,0
2018-09-07T02:25:57.138Z,0
2018-09-07T02:26:57.036Z,0
2018-09-07T02:27:57.114Z,0
2018-09-07T02:28:57.157Z,0
2018-09-07T02:29:57.154Z,0
2018-09-07T02:30:57.179Z,0
2018-09-07T02:31:57.178Z,0
2018-09-07T02:32:57.112Z,0
2018-09-07T02:33:57.186Z,0
2018-09-07T02:34:57.074Z,0
2018-09-07T02:35:57.115Z,0
2018-09-07T02:36:57.182Z,0
2018-09-07T02:37:57.186Z,0
2018-09-07T02:38:57.180Z,0
2018-09-07T02:39:57.115Z,0
2018-09-07T02:40:57.046Z,0
2018-09-07T02:41:57.138Z,0
2018-09-07T02:42:57.139Z,0
2018-09-07T02:43:57.158Z,0
2018-09-07T02:44:57.117Z,0
2018-09-07T02:45:57.150Z,0
2018-09-07T02:46:57.048Z,0
2018-09-07T02:47:57.141Z,0
2018-09-07T02:48:57.145Z,0
2018-09-07T02:49:57.117Z,0
2018-09-07T02:50:57.185Z,0
2018-09-07T02:51:57.261Z,0
2018-09-07T02:52:57.193Z,0
2018-09-07T02:53:57.183Z,0
2018-09-07T02:54:57.124Z,0
2018-09-07T02:55:57.103Z,0
2018-09-07T02:56:57.163Z,0
2018-09-07T02:57:57.151Z,0
2018-09-07T02:58:57.187Z,0
2018-09-07T02:59:57.100Z,0
2018-09-07T03:00:57.198Z,0
2018-09-07T03:01:57.200Z,0
2018-09-07T03:02:57.155Z,0
2018-09-07T03:03:57.135Z,0
2018-09-07T03:04:57.128Z,0
2018-09-07T03:05:57.203Z,0
2018-09-07T03:06:57.142Z,0
2018-09-07T03:07:57.201Z,0
2018-09-07T03:08:57.135Z,0
2018-09-07T03:09:57.204Z,0
2018-09-07T03:10:57.136Z,0
2018-09-07T03:11:57.138Z,0
2018-09-07T03:12:57.135Z,0
2018-09-07T03:13:57.206Z,0
2018-09-07T03:14:57.148Z,0
2018-09-07T03:15:57.207Z,0
2018-09-07T03:16:57.212Z,0
2018-09-07T03:17:57.148Z,0
2018-09-07T03:18:57.212Z,0
2018-09-07T03:19:57.149Z,0
2018-09-07T03:20:57.214Z,0
2018-09-07T03:21:57.212Z,0
2018-09-07T03:22:57.148Z,0
2018-09-07T03:23:57.216Z,0
2018-09-07T03:24:57.146Z,0
2018-09-07T03:25:57.216Z,0
2018-09-07T03:26:57.213Z,0
2018-09-07T03:27:57.161Z,0
2018-09-07T03:28:57.162Z,0
2018-09-07T03:29:57.221Z,0
2018-09-07T03:30:57.153Z,0
2018-09-07T03:31:57.219Z,0
2018-09-07T03:32:57.146Z,0
2018-09-07T03:33:57.149Z,0
2018-09-07T03:34:57.221Z,0
2018-09-07T03:35:57.154Z,0
2018-09-07T03:36:57.151Z,0
2018-09-07T03:37:57.155Z,0
2018-09-07T03:38:57.151Z,0
2018-09-07T03:39:57.175Z,0
2018-09-07T03:40:57.225Z,0
2018-09-07T03:41:57.152Z,0
2018-09-07T03:42:57.227Z,0
2018-09-07T03:43:57.137Z,0
2018-09-07T03:44:57.160Z,0
2018-09-07T03:45:57.163Z,0
2018-09-07T03:46:57.167Z,0
2018-09-07T03:47:57.161Z,0
2018-09-07T03:48:57.156Z,0
2018-09-07T03:49:57.161Z,0
2018-09-07T03:50:57.142Z,0
2018-09-07T03:51:57.139Z,0
2018-09-07T03:52:57.235Z,0
2018-09-07T03:53:57.212Z,0
2018-09-07T03:54:57.169Z,0
2018-09-07T03:55:57.230Z,0
2018-09-07T03:56:57.204Z,0
2018-09-07T03:57:57.224Z,0
2018-09-07T03:58:57.221Z,0
2018-09-07T03:59:57.101Z,0
2018-09-07T04:00:57.240Z,0
2018-09-07T04:01:57.176Z,0
2018-09-07T04:02:57.168Z,0
2018-09-07T04:03:57.241Z,0
2018-09-07T04:04:57.242Z,0
2018-09-07T04:05:57.178Z,0
2018-09-07T04:06:57.242Z,0
2018-09-07T04:07:57.205Z,0
2018-09-07T04:08:57.244Z,0
2018-09-07T04:09:57.181Z,0
2018-09-07T04:10:57.190Z,0
2018-09-07T04:11:57.267Z,0
2018-09-07T04:12:57.174Z,0
2018-09-07T04:13:57.254Z,0
2018-09-07T04:14:57.192Z,0
2018-09-07T04:15:57.182Z,0
2018-09-07T04:16:57.184Z,0
2018-09-07T04:17:57.335Z,0
2018-09-07T04:18:57.179Z,0
2018-09-07T04:19:57.252Z,0
2018-09-07T04:20:57.179Z,0
2018-09-07T04:21:57.252Z,0
2018-09-07T04:22:57.185Z,0
2018-09-07T04:23:57.257Z,0
2018-09-07T04:24:57.187Z,0
2018-09-07T04:25:57.197Z,0
2018-09-07T04:26:57.261Z,0
2018-09-07T04:27:57.274Z,0
2018-09-07T04:28:57.269Z,0
2018-09-07T04:29:57.261Z,0
2018-09-07T04:30:57.195Z,0
2018-09-07T04:31:57.262Z,5
2018-09-07T04:32:57.262Z,5
2018-09-07T04:33:57.264Z,5
2018-09-07T04:34:57.192Z,5
2018-09-07T04:35:57.263Z,11
2018-09-07T04:36:57.195Z,11
2018-09-07T04:37:57.268Z,11
2018-09-07T04:38:57.202Z,16
2018-09-07T04:39:57.271Z,16
2018-09-07T04:40:57.166Z,16
2018-09-07T04:41:57.174Z,22
2018-09-07T04:42:57.130Z,22
2018-09-07T04:43:57.198Z,28
2018-09-07T04:44:57.226Z,28
2018-09-07T04:45:57.200Z,33
2018-09-07T04:46:57.286Z,33
2018-09-07T04:47:57.220Z,33
2018-09-07T04:48:57.223Z,39
2018-09-07T04:49:57.261Z,39
2018-09-07T04:50:57.202Z,39
2018-09-07T04:51:57.207Z,39
2018-09-07T04:52:57.279Z,39
2018-09-07T04:53:57.205Z,39
2018-09-07T04:54:57.209Z,45
2018-09-07T04:55:57.212Z,50
2018-09-07T04:56:57.213Z,56
2018-09-07T04:57:57.217Z,67
2018-09-07T04:58:57.308Z,73
2018-09-07T04:59:57.285Z,78
2018-09-07T05:00:57.286Z,90
2018-09-07T05:01:57.286Z,95
2018-09-07T05:02:57.211Z,101
2018-09-07T05:03:57.211Z,106
2018-09-07T05:04:57.236Z,112
2018-09-07T05:05:57.227Z,118
2018-09-07T05:06:57.211Z,123
2018-09-07T05:07:57.314Z,129
2018-09-07T05:08:57.285Z,135
2018-09-07T05:09:57.212Z,140
2018-09-07T05:10:57.268Z,146
2018-09-07T05:11:57.309Z,151
2018-09-07T05:12:57.232Z,163
2018-09-07T05:13:57.249Z,168
2018-09-07T05:14:57.200Z,168
2018-09-07T05:15:57.238Z,180
2018-09-07T05:16:57.285Z,185
2018-09-07T05:17:57.249Z,191
2018-09-07T05:18:57.318Z,202
2018-09-07T05:19:57.181Z,208
2018-09-07T05:20:57.226Z,213
2018-09-07T05:21:57.235Z,219
2018-09-07T05:22:57.225Z,230
2018-09-07T05:23:57.221Z,236
2018-09-07T05:24:57.299Z,241
2018-09-07T05:25:57.231Z,247
2018-09-07T05:26:57.270Z,253
2018-09-07T05:27:57.323Z,258
2018-09-07T05:28:57.237Z,264
2018-09-07T05:29:57.229Z,275
2018-09-07T05:30:57.304Z,281
2018-09-07T05:31:57.302Z,292
2018-09-07T05:32:57.240Z,298
2018-09-07T05:33:57.230Z,303
2018-09-07T05:34:57.272Z,309
2018-09-07T05:35:57.304Z,315
2018-09-07T05:36:57.309Z,326
2018-09-07T05:37:57.242Z,331
2018-09-07T05:38:57.307Z,331
2018-09-07T05:39:57.239Z,343
2018-09-07T05:40:57.313Z,348
2018-09-07T05:41:57.242Z,360
2018-09-07T05:42:57.235Z,360
2018-09-07T05:43:57.317Z,371
2018-09-07T05:44:57.241Z,376
2018-09-07T05:45:57.304Z,388
2018-09-07T05:46:57.243Z,450
2018-09-07T05:47:57.318Z,590
2018-09-07T05:48:57.195Z,646
2018-09-07T05:49:57.238Z,658
2018-09-07T05:50:57.320Z,686
2018-09-07T05:51:57.317Z,708
2018-09-07T05:52:57.252Z,781
2018-09-07T05:53:57.244Z,804
2018-09-07T05:54:57.320Z,821
2018-09-07T05:55:57.253Z,821
2018-09-07T05:56:57.323Z,821
2018-09-07T05:57:57.322Z,787
2018-09-07T05:58:57.246Z,753
2018-09-07T05:59:57.322Z,753
2018-09-07T06:00:57.225Z,759
2018-09-07T06:01:57.226Z,765
2018-09-07T06:02:57.292Z,776
2018-09-07T06:03:57.206Z,781
2018-09-07T06:04:57.277Z,776
2018-09-07T06:05:57.351Z,781
2018-09-07T06:06:57.186Z,787
2018-09-07T06:07:57.205Z,787
2018-09-07T06:08:57.300Z,804
2018-09-07T06:09:57.299Z,798
2018-09-07T06:10:57.330Z,815
2018-09-07T06:11:57.259Z,826
2018-09-07T06:12:57.267Z,832
2018-09-07T06:13:57.333Z,855
2018-09-07T06:14:57.266Z,860
2018-09-07T06:15:57.347Z,871
2018-09-07T06:16:57.334Z,894
2018-09-07T06:17:57.388Z,933
2018-09-07T06:18:57.340Z,956
2018-09-07T06:19:57.268Z,995
2018-09-07T06:20:57.262Z,1029
2018-09-07T06:21:57.340Z,1125
2018-09-07T06:22:57.266Z,1226
2018-09-07T06:23:57.338Z,1192
2018-09-07T06:24:57.343Z,1130
2018-09-07T06:25:57.267Z,1057
2018-09-07T06:26:57.341Z,821
2018-09-07T06:27:57.267Z,776
2018-09-07T06:28:57.365Z,720
2018-09-07T06:29:57.276Z,990
2018-09-07T06:30:57.192Z,748
2018-09-07T06:31:57.288Z,1175
2018-09-07T06:32:57.274Z,1186
2018-09-07T06:33:57.198Z,1209
2018-09-07T06:34:57.236Z,1231
2018-09-07T06:35:57.200Z,1248
2018-09-07T06:36:57.350Z,1260
2018-09-07T06:37:57.198Z,1237
2018-09-07T06:38:57.237Z,1282
2018-09-07T06:39:57.233Z,1321
2018-09-07T06:40:57.257Z,1395
2018-09-07T06:41:57.304Z,1513
2018-09-07T06:42:57.217Z,1535
2018-09-07T06:43:57.284Z,1513
2018-09-07T06:44:57.282Z,1327
2018-09-07T06:45:57.336Z,871
2018-09-07T06:46:57.220Z,798
2018-09-07T06:47:57.243Z,793
2018-09-07T06:48:57.334Z,1085
2018-09-07T06:49:57.322Z,995
2018-09-07T06:50:57.283Z,933
2018-09-07T06:51:57.257Z,905
2018-09-07T06:52:57.243Z,1080
2018-09-07T06:53:57.307Z,1108
2018-09-07T06:54:57.350Z,1164
2018-09-07T06:55:57.312Z,1659
2018-09-07T06:56:57.329Z,1248
2018-09-07T06:57:57.348Z,1074
2018-09-07T06:58:57.296Z,1271
2018-09-07T06:59:57.357Z,1102
2018-09-07T07:00:57.332Z,967
2018-09-07T07:01:57.351Z,911
2018-09-07T07:02:57.421Z,928
2018-09-07T07:03:57.262Z,1012
2018-09-07T07:04:57.353Z,1091
2018-09-07T07:05:57.304Z,995
2018-09-07T07:06:57.335Z,973
2018-09-07T07:07:57.280Z,933
2018-09-07T07:08:57.271Z,866
2018-09-07T07:09:57.273Z,900
2018-09-07T07:10:57.268Z,1091
2018-09-07T07:11:57.300Z,1755
2018-09-07T07:12:57.352Z,1288
2018-09-07T07:13:57.307Z,1147
2018-09-07T07:14:57.309Z,1080
2018-09-07T07:15:57.396Z,1119
2018-09-07T07:16:57.305Z,945
2018-09-07T07:17:57.307Z,905
2018-09-07T07:18:57.383Z,877
2018-09-07T07:19:57.310Z,815
2018-09-07T07:20:57.383Z,843
2018-09-07T07:21:57.383Z,877
2018-09-07T07:22:57.406Z,950
2018-09-07T07:23:57.392Z,2103
2018-09-07T07:24:57.383Z,1732
2018-09-07T07:25:57.402Z,1833
2018-09-07T07:26:57.385Z,1923
2018-09-07T07:27:57.337Z,1991
2018-09-07T07:28:57.387Z,2019
2018-09-07T07:29:57.320Z,1231
2018-09-07T07:30:57.279Z,1479
2018-09-07T07:31:57.325Z,1698
2018-09-07T07:32:57.387Z,1406
2018-09-07T07:33:57.318Z,1350
2018-09-07T07:34:57.403Z,1721
2018-09-07T07:35:57.323Z,1535
2018-09-07T07:36:57.391Z,1344
2018-09-07T07:37:57.325Z,1383
2018-09-07T07:38:57.393Z,1395
2018-09-07T07:39:57.325Z,1423
2018-09-07T07:40:57.391Z,1530
2018-09-07T07:41:57.322Z,1473
2018-09-07T07:42:57.397Z,1378
2018-09-07T07:43:57.319Z,1389
2018-09-07T07:44:57.400Z,1344
2018-09-07T07:45:57.324Z,1411
2018-09-07T07:46:57.476Z,1456
2018-09-07T07:47:57.527Z,1530
2018-09-07T07:48:57.399Z,2328
2018-09-07T07:49:57.336Z,1659
2018-09-07T07:50:57.403Z,2553
2018-09-07T07:51:57.401Z,1771
2018-09-07T07:52:57.325Z,2486
2018-09-07T07:53:57.325Z,1704
2018-09-07T07:54:57.405Z,2025
2018-09-07T07:55:57.349Z,1839
2018-09-07T07:56:57.355Z,2283
2018-09-07T07:57:57.331Z,1755
2018-09-07T07:58:57.406Z,2818
2018-09-07T07:59:57.333Z,3015
2018-09-07T08:00:57.413Z,3065
2018-09-07T08:01:57.291Z,3020
2018-09-07T08:02:57.405Z,2705
2018-09-07T08:03:57.357Z,2334
2018-09-07T08:04:57.372Z,2385
2018-09-07T08:05:57.349Z,2081
2018-09-07T08:06:57.281Z,1794
2018-09-07T08:07:57.408Z,2610
2018-09-07T08:08:57.323Z,1828
2018-09-07T08:09:57.350Z,2126
2018-09-07T08:10:57.374Z,1530
2018-09-07T08:11:57.414Z,1597
2018-09-07T08:12:57.342Z,1614
2018-09-07T08:13:57.340Z,1738
2018-09-07T08:14:57.338Z,3200
2018-09-07T08:15:57.471Z,1755
2018-09-07T08:16:57.367Z,3172
2018-09-07T08:17:57.421Z,3346
2018-09-07T08:18:57.350Z,3346
2018-09-07T08:19:57.422Z,3262
2018-09-07T08:20:57.346Z,3065
2018-09-07T08:21:57.422Z,2930
2018-09-07T08:22:57.348Z,1608
2018-09-07T08:23:57.348Z,2520
2018-09-07T08:24:57.440Z,1648
2018-09-07T08:25:57.350Z,1530
2018-09-07T08:26:57.426Z,3380
2018-09-07T08:27:57.351Z,3442
2018-09-07T08:28:57.426Z,3476
2018-09-07T08:29:57.357Z,3538
2018-09-07T08:30:57.432Z,3043
2018-09-07T08:31:57.369Z,3358
2018-09-07T08:32:57.444Z,3262
2018-09-07T08:33:57.374Z,1428
2018-09-07T08:34:57.389Z,1462
2018-09-07T08:35:57.340Z,1445
2018-09-07T08:36:57.268Z,1305
2018-09-07T08:37:57.410Z,1305
2018-09-07T08:38:57.338Z,1192
2018-09-07T08:39:57.287Z,1175
2018-09-07T08:40:57.362Z,1220
2018-09-07T08:41:57.341Z,1344
2018-09-07T08:42:57.275Z,1546
2018-09-07T08:43:57.341Z,2880
2018-09-07T08:44:57.242Z,1591
2018-09-07T08:45:57.295Z,2345
2018-09-07T08:46:57.296Z,3684
2018-09-07T08:47:57.251Z,1884
2018-09-07T08:48:57.344Z,2165
2018-09-07T08:49:57.317Z,1760
2018-09-07T08:50:57.268Z,1726
2018-09-07T08:51:57.386Z,1434
2018-09-07T08:52:57.388Z,1299
2018-09-07T08:53:57.369Z,1248
2018-09-07T08:54:57.439Z,1288
2018-09-07T08:55:57.325Z,1428
2018-09-07T08:56:57.322Z,1535
2018-09-07T08:57:57.447Z,1676
2018-09-07T08:58:57.438Z,1800
2018-09-07T08:59:57.379Z,1726
2018-09-07T09:00:57.417Z,1721
2018-09-07T09:01:57.376Z,2475
2018-09-07T09:02:57.450Z,3780
2018-09-07T09:03:57.381Z,3003
2018-09-07T09:04:57.452Z,3898
2018-09-07T09:05:57.382Z,3903
2018-09-07T09:06:57.458Z,3937
2018-09-07T09:07:57.380Z,2520
2018-09-07T09:08:57.455Z,2227
2018-09-07T09:09:57.385Z,2086
2018-09-07T09:10:57.382Z,2025
2018-09-07T09:11:57.322Z,1951
2018-09-07T09:12:57.308Z,1839
2018-09-07T09:13:57.407Z,1631
2018-09-07T09:14:57.399Z,1361
2018-09-07T09:15:57.458Z,1119
2018-09-07T09:16:57.419Z,961
2018-09-07T09:17:57.423Z,871
2018-09-07T09:18:57.345Z,815
2018-09-07T09:19:57.405Z,821
2018-09-07T09:20:57.351Z,888
2018-09-07T09:21:57.428Z,961
2018-09-07T09:22:57.451Z,1119
2018-09-07T09:23:57.481Z,1389
2018-09-07T09:24:57.363Z,1715
2018-09-07T09:25:57.412Z,1940
2018-09-07T09:26:57.410Z,2002
2018-09-07T09:27:57.390Z,2041
2018-09-07T09:28:57.367Z,2081
2018-09-07T09:29:57.354Z,2109
2018-09-07T09:30:57.466Z,2210
2018-09-07T09:31:57.402Z,2092
2018-09-07T09:32:57.570Z,2058
2018-09-07T09:33:57.474Z,2092
2018-09-07T09:34:57.399Z,2120
2018-09-07T09:35:57.476Z,2328
2018-09-07T09:36:57.400Z,2525
2018-09-07T09:37:57.479Z,2368
2018-09-07T09:38:57.406Z,2266
2018-09-07T09:39:57.481Z,2210
2018-09-07T09:40:57.407Z,2070
2018-09-07T09:41:57.403Z,1968
2018-09-07T09:42:57.342Z,1918
2018-09-07T09:43:57.450Z,1822
2018-09-07T09:44:57.341Z,1710
2018-09-07T09:45:57.412Z,1625
2018-09-07T09:46:57.430Z,1603
2018-09-07T09:47:57.345Z,1721
2018-09-07T09:48:57.385Z,1755
2018-09-07T09:49:57.475Z,1659
2018-09-07T09:50:57.475Z,1665
2018-09-07T09:51:57.406Z,1715
2018-09-07T09:52:57.611Z,1721
2018-09-07T09:53:57.488Z,1794
2018-09-07T09:54:57.417Z,2013
2018-09-07T09:55:57.490Z,2289
2018-09-07T09:56:57.518Z,2193
2018-09-07T09:57:57.417Z,1985
2018-09-07T09:58:57.492Z,1833
2018-09-07T09:59:57.420Z,1805
2018-09-07T10:00:57.494Z,1923
2018-09-07T10:01:57.421Z,2092
2018-09-07T10:02:57.493Z,2323
2018-09-07T10:03:57.417Z,2435
2018-09-07T10:04:57.494Z,3037
2018-09-07T10:05:57.423Z,2576
2018-09-07T10:06:57.445Z,3690
2018-09-07T10:07:57.497Z,2773
2018-09-07T10:08:57.423Z,2846
2018-09-07T10:09:57.500Z,2233
2018-09-07T10:10:57.519Z,2632
2018-09-07T10:11:57.433Z,2165
2018-09-07T10:12:57.409Z,2120
2018-09-07T10:13:57.498Z,2171
2018-09-07T10:14:57.422Z,1968
2018-09-07T10:15:57.445Z,1783
2018-09-07T10:16:57.502Z,1687
2018-09-07T10:17:57.433Z,1738
2018-09-07T10:18:57.569Z,1715
2018-09-07T10:19:57.432Z,1833
2018-09-07T10:20:57.430Z,1974
2018-09-07T10:21:57.455Z,2345
2018-09-07T10:22:57.341Z,1743
2018-09-07T10:23:57.374Z,1558
2018-09-07T10:24:57.360Z,1563
2018-09-07T10:25:57.461Z,1766
2018-09-07T10:26:57.460Z,2739
2018-09-07T10:27:57.474Z,4128
2018-09-07T10:28:57.399Z,2081
2018-09-07T10:29:57.375Z,2086
2018-09-07T10:30:57.540Z,2115
2018-09-07T10:31:57.514Z,2160
2018-09-07T10:32:57.445Z,2255
2018-09-07T10:33:57.517Z,2086
2018-09-07T10:34:57.441Z,1906
2018-09-07T10:35:57.518Z,1878
2018-09-07T10:36:57.521Z,1816
2018-09-07T10:37:57.443Z,1710
2018-09-07T10:38:57.524Z,1704
2018-09-07T10:39:57.443Z,1755
2018-09-07T10:40:57.444Z,1816
2018-09-07T10:41:57.448Z,1873
2018-09-07T10:42:57.457Z,1991
2018-09-07T10:43:57.534Z,1816
2018-09-07T10:44:57.499Z,1541
2018-09-07T10:45:57.452Z,1350
2018-09-07T10:46:57.451Z,1248
2018-09-07T10:47:57.528Z,1231
2018-09-07T10:48:57.525Z,1316
2018-09-07T10:49:57.453Z,1428
2018-09-07T10:50:57.531Z,1355
2018-09-07T10:51:57.453Z,1333
2018-09-07T10:52:57.540Z,1288
2018-09-07T10:53:57.475Z,1237
2018-09-07T10:54:57.531Z,1248
2018-09-07T10:55:57.461Z,1344
2018-09-07T10:56:57.533Z,1631
2018-09-07T10:57:57.464Z,1856
2018-09-07T10:58:57.537Z,1980
2018-09-07T10:59:57.536Z,2008
2018-09-07T11:00:57.533Z,2019
2018-09-07T11:01:57.396Z,2030
2018-09-07T11:02:57.530Z,2070
2018-09-07T11:03:57.444Z,2154
2018-09-07T11:04:57.496Z,2199
2018-09-07T11:05:57.477Z,2193
2018-09-07T11:06:57.415Z,2199
2018-09-07T11:07:57.417Z,2283
2018-09-07T11:08:57.538Z,2362
2018-09-07T11:09:57.440Z,2497
2018-09-07T11:10:57.415Z,2728
2018-09-07T11:11:57.470Z,2840
2018-09-07T11:12:57.544Z,3330
2018-09-07T11:13:57.516Z,3127
2018-09-07T11:14:57.551Z,3116
2018-09-07T11:15:57.471Z,3060
2018-09-07T11:16:57.551Z,3341
2018-09-07T11:17:57.547Z,2784
2018-09-07T11:18:57.476Z,3307
2018-09-07T11:19:57.579Z,2283
2018-09-07T11:20:57.641Z,2255
2018-09-07T11:21:57.514Z,2115
2018-09-07T11:22:57.493Z,1935
2018-09-07T11:23:57.535Z,1704
2018-09-07T11:24:57.494Z,1496
2018-09-07T11:25:57.474Z,1361
2018-09-07T11:26:57.495Z,1181
2018-09-07T11:27:57.497Z,1051
2018-09-07T11:28:57.541Z,911
2018-09-07T11:29:57.550Z,742
2018-09-07T11:30:57.436Z,596
2018-09-07T11:31:57.554Z,495
2018-09-07T11:32:57.485Z,421
2018-09-07T11:33:57.484Z,376
2018-09-07T11:34:57.558Z,348
2018-09-07T11:35:57.510Z,326
2018-09-07T11:36:57.488Z,281
2018-09-07T11:37:57.439Z,236
2018-09-07T11:38:57.494Z,213
2018-09-07T11:39:57.561Z,241
2018-09-07T11:40:57.541Z,326
2018-09-07T11:41:57.562Z,433
2018-09-07T11:42:57.488Z,517
2018-09-07T11:43:57.564Z,562
2018-09-07T11:44:57.490Z,601
2018-09-07T11:45:57.565Z,652
2018-09-07T11:46:57.493Z,708
2018-09-07T11:47:57.570Z,748
2018-09-07T11:48:57.493Z,742
2018-09-07T11:49:57.563Z,686
2018-09-07T11:50:57.609Z,641
2018-09-07T11:51:57.569Z,624
2018-09-07T11:52:57.495Z,635
2018-09-07T11:53:57.524Z,624
2018-09-07T11:54:57.573Z,596
2018-09-07T11:55:57.499Z,556
2018-09-07T11:56:57.573Z,506
2018-09-07T11:57:57.501Z,489
2018-09-07T11:58:57.507Z,517
2018-09-07T11:59:57.577Z,562
2018-09-07T12:00:57.503Z,562
2018-09-07T12:01:57.553Z,573
2018-09-07T12:02:57.581Z,663
2018-09-07T12:03:57.503Z,759
2018-09-07T12:04:57.582Z,826
2018-09-07T12:05:57.507Z,900
2018-09-07T12:06:57.579Z,1012
2018-09-07T12:07:57.519Z,1141
2018-09-07T12:08:57.533Z,1333
2018-09-07T12:09:57.580Z,1608
2018-09-07T12:10:57.507Z,1850
2018-09-07T12:11:57.582Z,2025
2018-09-07T12:12:57.680Z,1963
2018-09-07T12:13:57.510Z,1760
2018-09-07T12:14:57.590Z,1524
2018-09-07T12:15:57.511Z,1400
2018-09-07T12:16:57.591Z,1451
2018-09-07T12:17:57.517Z,1513
2018-09-07T12:18:57.468Z,1501
2018-09-07T12:19:57.515Z,1445
2018-09-07T12:20:57.599Z,1355
2018-09-07T12:21:57.526Z,1226
2018-09-07T12:22:57.603Z,1074
2018-09-07T12:23:57.516Z,945
2018-09-07T12:24:57.594Z,900
2018-09-07T12:25:57.599Z,961
2018-09-07T12:26:57.606Z,1119
2018-09-07T12:27:57.518Z,1316
2018-09-07T12:28:57.596Z,1518
2018-09-07T12:29:57.528Z,1755
2018-09-07T12:30:57.519Z,1963
2018-09-07T12:31:57.582Z,2103
2018-09-07T12:32:57.559Z,2238
2018-09-07T12:33:57.546Z,2311
2018-09-07T12:34:57.497Z,2418
2018-09-07T12:35:57.530Z,2767
2018-09-07T12:36:57.471Z,2700
2018-09-07T12:37:57.457Z,2565
2018-09-07T12:38:57.499Z,2098
2018-09-07T12:39:57.506Z,1884
2018-09-07T12:40:57.604Z,1788
2018-09-07T12:41:57.671Z,1732
2018-09-07T12:42:57.517Z,1715
2018-09-07T12:43:57.531Z,1693
2018-09-07T12:44:57.608Z,1676
2018-09-07T12:45:57.529Z,1704
2018-09-07T12:46:57.534Z,1755
2018-09-07T12:47:57.611Z,1833
2018-09-07T12:48:57.533Z,1873
2018-09-07T12:49:57.522Z,1895
2018-09-07T12:50:57.524Z,2036
2018-09-07T12:51:57.540Z,2143
2018-09-07T12:52:57.616Z,2261
2018-09-07T12:53:57.617Z,2418
2018-09-07T12:54:57.541Z,4449
2018-09-07T12:55:57.667Z,2317
2018-09-07T12:56:57.543Z,1861
2018-09-07T12:57:57.618Z,1845
2018-09-07T12:58:57.622Z,2598
2018-09-07T12:59:57.544Z,2081
2018-09-07T13:00:57.616Z,2238
2018-09-07T13:01:57.619Z,2261
2018-09-07T13:02:57.546Z,3015
2018-09-07T13:03:57.606Z,2311
2018-09-07T13:04:57.547Z,2064
2018-09-07T13:05:57.535Z,1957
2018-09-07T13:06:57.618Z,1935
2018-09-07T13:07:57.520Z,1996
2018-09-07T13:08:57.586Z,2115
2018-09-07T13:09:57.592Z,4831
2018-09-07T13:10:57.504Z,4151
2018-09-07T13:11:57.569Z,4471
2018-09-07T13:12:57.581Z,2643
2018-09-07T13:13:57.489Z,3420
2018-09-07T13:14:57.565Z,2233
2018-09-07T13:15:57.489Z,2311
2018-09-07T13:16:57.586Z,3555
2018-09-07T13:17:57.497Z,2131
2018-09-07T13:18:57.498Z,2503
2018-09-07T13:19:57.587Z,2553
2018-09-07T13:20:57.594Z,2385
2018-09-07T13:21:57.583Z,3161
2018-09-07T13:22:57.637Z,1839
2018-09-07T13:23:57.558Z,1687
2018-09-07T13:24:57.715Z,1603
2018-09-07T13:25:57.557Z,1440
2018-09-07T13:26:57.636Z,1344
2018-09-07T13:27:57.563Z,1282
2018-09-07T13:28:57.561Z,1276
2018-09-07T13:29:57.551Z,1333
2018-09-07T13:30:57.638Z,1327
2018-09-07T13:31:57.638Z,1299
2018-09-07T13:32:57.581Z,1265
2018-09-07T13:33:57.638Z,1248
2018-09-07T13:34:57.577Z,1468
2018-09-07T13:35:57.639Z,1260
2018-09-07T13:36:57.647Z,1158
2018-09-07T13:37:57.571Z,1040
2018-09-07T13:38:57.573Z,961
2018-09-07T13:39:57.649Z,916
2018-09-07T13:40:57.572Z,928
2018-09-07T13:41:57.649Z,1006
2018-09-07T13:42:57.574Z,1175
2018-09-07T13:43:57.572Z,2458
2018-09-07T13:44:57.577Z,2058
2018-09-07T13:45:57.648Z,3352
2018-09-07T13:46:57.585Z,3875
2018-09-07T13:47:57.651Z,3718
2018-09-07T13:48:57.590Z,3701
2018-09-07T13:49:57.655Z,2008
2018-09-07T13:50:57.658Z,1659
2018-09-07T13:51:57.580Z,2598
2018-09-07T13:52:57.655Z,1980